Time,TemperatureF,DewpointF,PressureIn,WindDirection,WindDirectionDegrees,WindSpeedMPH,WindSpeedGustMPH,Humidity,HourlyPrecipIn,Conditions,Clouds,dailyrainin,SolarRadiationWatts/m^2,SoftwareType,DateUTC
2013-03-02 00:01:00,44.1,28.9,30.30,NW,311,0.0,2.0,55,0.00,,,0.00,0.0,meteohub,2013-03-02 07:01:00,
2013-03-02 00:06:00,43.9,28.8,30.30,NW,311,0.0,2.0,55,0.00,,,0.00,0.0,meteohub,2013-03-02 07:06:00,
2013-03-02 00:11:00,43.9,29.7,30.30,NW,311,0.0,1.0,57,0.00,,,0.00,0.0,meteohub,2013-03-02 07:11:00,
2013-03-02 00:16:00,43.7,29.1,30.30,NW,311,0.0,1.0,56,0.00,,,0.00,0.0,meteohub,2013-03-02 07:16:00,
2013-03-02 00:21:00,43.5,29.3,30.30,NW,311,0.0,1.0,57,0.00,,,0.00,0.0,meteohub,2013-03-02 07:21:00,
2013-03-02 00:26:00,43.2,28.9,30.30,NW,311,1.0,1.0,57,0.00,,,0.00,0.0,meteohub,2013-03-02 07:26:00,
2013-03-02 00:31:00,43.2,29.3,30.30,NW,311,0.0,1.0,58,0.00,,,0.00,0.0,meteohub,2013-03-02 07:31:00,
2013-03-02 00:36:00,43.0,28.8,30.30,NW,311,0.0,1.0,57,0.00,,,0.00,0.0,meteohub,2013-03-02 07:36:00,
2013-03-02 00:41:00,43.0,29.3,30.30,NW,311,0.0,1.0,58,0.00,,,0.00,0.0,meteohub,2013-03-02 07:41:00,
2013-03-02 00:46:00,43.0,28.8,30.30,NW,311,1.0,1.0,57,0.00,,,0.00,0.0,meteohub,2013-03-02 07:46:00,
2013-03-02 00:51:00,43.2,28.9,30.30,NW,311,1.0,2.0,57,0.00,,,0.00,0.0,meteohub,2013-03-02 07:51:00,
2013-03-02 00:56:00,43.3,29.1,30.30,NW,311,1.0,2.0,57,0.00,,,0.00,0.0,meteohub,2013-03-02 07:56:00,
2013-03-02 01:01:00,43.5,28.4,30.30,NNW,329,2.0,2.0,55,0.00,,,0.00,0.0,meteohub,2013-03-02 08:01:00,
2013-03-02 01:06:00,43.5,28.4,30.30,NNW,340,1.0,2.0,55,0.00,,,0.00,0.0,meteohub,2013-03-02 08:06:00,
2013-03-02 01:11:00,43.7,28.2,30.30,NNW,340,1.0,2.0,54,0.00,,,0.00,0.0,meteohub,2013-03-02 08:11:00,
2013-03-02 01:16:00,43.7,28.6,30.30,NNW,340,0.0,2.0,55,0.00,,,0.00,0.0,meteohub,2013-03-02 08:16:00,
2013-03-02 01:21:00,43.5,28.9,30.30,NNW,340,1.0,2.0,56,0.00,,,0.00,0.0,meteohub,2013-03-02 08:21:00,
2013-03-02 01:26:00,43.3,28.8,30.30,NNW,340,0.0,1.0,56,0.00,,,0.00,0.0,meteohub,2013-03-02 08:26:00,
2013-03-02 01:31:00,43.3,28.2,30.30,NNW,340,1.0,1.0,55,0.00,,,0.00,0.0,meteohub,2013-03-02 08:31:00,
2013-03-02 01:36:00,43.3,29.1,30.29,NNW,340,0.0,2.0,57,0.00,,,0.00,0.0,meteohub,2013-03-02 08:36:00,
2013-03-02 01:41:00,43.2,28.0,30.30,NE,40,0.0,3.0,55,0.00,,,0.00,0.0,meteohub,2013-03-02 08:41:00,
2013-03-02 01:46:00,43.2,28.0,30.30,NE,40,0.0,3.0,55,0.00,,,0.00,0.0,meteohub,2013-03-02 08:46:00,
2013-03-02 01:51:00,43.3,28.2,30.30,NE,40,1.0,3.0,55,0.00,,,0.00,0.0,meteohub,2013-03-02 08:51:00,
2013-03-02 01:57:00,43.3,28.2,30.30,NE,40,0.0,2.0,55,0.00,,,0.00,0.0,meteohub,2013-03-02 08:57:00,
2013-03-02 02:01:00,43.2,28.0,30.30,NE,40,1.0,2.0,55,0.00,,,0.00,0.0,meteohub,2013-03-02 09:01:00,
2013-03-02 02:07:00,43.3,27.9,30.30,NE,40,1.0,2.0,54,0.00,,,0.00,0.0,meteohub,2013-03-02 09:07:00,
2013-03-02 02:12:00,43.5,28.0,30.30,NE,40,1.0,2.0,54,0.00,,,0.00,0.0,meteohub,2013-03-02 09:12:00,
2013-03-02 02:17:00,43.9,27.9,30.30,NE,39,1.0,2.0,53,0.00,,,0.00,0.0,meteohub,2013-03-02 09:17:00,
2013-03-02 02:22:00,44.2,27.7,30.30,NNW,329,1.0,2.0,52,0.00,,,0.00,0.0,meteohub,2013-03-02 09:22:00,
2013-03-02 02:27:00,44.4,27.5,30.30,WNW,295,0.0,2.0,51,0.00,,,0.00,0.0,meteohub,2013-03-02 09:27:00,
2013-03-02 02:32:00,44.8,27.3,30.30,WNW,295,2.0,2.0,50,0.00,,,0.00,0.0,meteohub,2013-03-02 09:32:00,
2013-03-02 02:37:00,45.0,27.9,30.30,East,100,2.0,2.0,51,0.00,,,0.00,0.0,meteohub,2013-03-02 09:37:00,
2013-03-02 02:42:00,44.8,28.2,30.30,East,101,0.0,3.0,52,0.00,,,0.00,0.0,meteohub,2013-03-02 09:42:00,
2013-03-02 02:47:00,44.2,27.7,30.30,East,101,0.0,3.0,52,0.00,,,0.00,0.0,meteohub,2013-03-02 09:47:00,
2013-03-02 02:52:00,43.7,27.7,30.30,East,101,0.0,3.0,53,0.00,,,0.00,0.0,meteohub,2013-03-02 09:52:00,
2013-03-02 02:57:00,43.2,28.0,30.30,East,101,1.0,2.0,55,0.00,,,0.00,0.0,meteohub,2013-03-02 09:57:00,
2013-03-02 03:02:00,42.3,28.0,30.30,East,101,0.0,2.0,57,0.00,,,0.00,0.0,meteohub,2013-03-02 10:02:00,
2013-03-02 03:07:00,41.7,28.4,30.29,East,101,0.0,2.0,59,0.00,,,0.00,0.0,meteohub,2013-03-02 10:07:00,
2013-03-02 03:12:00,41.4,28.9,30.29,East,101,0.0,2.0,61,0.00,,,0.00,0.0,meteohub,2013-03-02 10:12:00,
2013-03-02 03:17:00,40.8,28.8,30.29,East,101,1.0,1.0,62,0.00,,,0.00,0.0,meteohub,2013-03-02 10:17:00,
2013-03-02 03:22:00,40.6,28.6,30.29,East,101,0.0,2.0,62,0.00,,,0.00,0.0,meteohub,2013-03-02 10:22:00,
2013-03-02 03:27:00,40.5,28.9,30.29,East,101,1.0,2.0,63,0.00,,,0.00,0.0,meteohub,2013-03-02 10:27:00,
2013-03-02 03:32:00,40.5,28.0,30.29,East,101,1.0,2.0,61,0.00,,,0.00,0.0,meteohub,2013-03-02 10:32:00,
2013-03-02 03:37:00,40.8,28.0,30.29,East,101,0.0,2.0,60,0.00,,,0.00,0.0,meteohub,2013-03-02 10:37:00,
2013-03-02 03:42:00,41.0,28.9,30.29,East,101,0.0,2.0,62,0.00,,,0.00,0.0,meteohub,2013-03-02 10:42:00,
2013-03-02 03:47:00,40.6,29.1,30.29,East,101,0.0,2.0,63,0.00,,,0.00,0.0,meteohub,2013-03-02 10:47:00,
2013-03-02 03:52:00,39.9,28.0,30.29,East,101,0.0,2.0,62,0.00,,,0.00,0.0,meteohub,2013-03-02 10:52:00,
2013-03-02 03:57:00,39.7,27.9,30.29,East,101,0.0,2.0,62,0.00,,,0.00,0.0,meteohub,2013-03-02 10:57:00,
2013-03-02 04:02:00,39.6,27.7,30.29,East,101,1.0,2.0,62,0.00,,,0.00,0.0,meteohub,2013-03-02 11:02:00,
2013-03-02 04:07:00,39.6,28.4,30.29,East,101,1.0,2.0,64,0.00,,,0.00,0.0,meteohub,2013-03-02 11:07:00,
2013-03-02 04:12:00,39.0,27.9,30.29,East,101,1.0,2.0,64,0.00,,,0.00,0.0,meteohub,2013-03-02 11:12:00,
2013-03-02 04:17:00,39.2,28.4,30.29,East,101,1.0,2.0,65,0.00,,,0.00,0.0,meteohub,2013-03-02 11:17:00,
2013-03-02 04:22:00,39.4,28.2,30.29,East,101,0.0,1.0,64,0.00,,,0.00,0.0,meteohub,2013-03-02 11:22:00,
2013-03-02 04:27:00,39.6,28.8,30.29,East,101,1.0,1.0,65,0.00,,,0.00,0.0,meteohub,2013-03-02 11:27:00,
2013-03-02 04:32:00,39.4,28.6,30.29,East,101,1.0,2.0,65,0.00,,,0.00,0.0,meteohub,2013-03-02 11:32:00,
2013-03-02 04:37:00,39.2,28.4,30.29,East,101,0.0,2.0,65,0.00,,,0.00,0.0,meteohub,2013-03-02 11:37:00,
2013-03-02 04:42:00,39.0,27.9,30.29,East,98,1.0,2.0,64,0.00,,,0.00,0.0,meteohub,2013-03-02 11:42:00,
2013-03-02 04:47:00,38.7,28.2,30.30,East,98,1.0,3.0,66,0.00,,,0.00,0.0,meteohub,2013-03-02 11:47:00,
2013-03-02 04:52:00,38.7,28.2,30.30,East,98,1.0,3.0,66,0.00,,,0.00,0.0,meteohub,2013-03-02 11:52:00,
2013-03-02 04:57:00,38.8,28.4,30.30,East,98,1.0,3.0,66,0.00,,,0.00,0.0,meteohub,2013-03-02 11:57:00,
2013-03-02 05:02:00,38.8,28.8,30.30,East,98,0.0,2.0,67,0.00,,,0.00,0.0,meteohub,2013-03-02 12:02:00,
2013-03-02 05:07:00,38.8,28.4,30.30,East,98,0.0,2.0,66,0.00,,,0.00,0.0,meteohub,2013-03-02 12:07:00,
2013-03-02 05:12:00,38.5,28.4,30.30,East,98,1.0,1.0,67,0.00,,,0.00,0.0,meteohub,2013-03-02 12:12:00,
2013-03-02 05:17:00,38.5,28.0,30.30,East,98,0.0,1.0,66,0.00,,,0.00,0.0,meteohub,2013-03-02 12:17:00,
2013-03-02 05:22:00,38.3,28.2,30.30,East,98,1.0,2.0,67,0.00,,,0.00,0.0,meteohub,2013-03-02 12:22:00,
2013-03-02 05:27:00,37.9,28.0,30.30,East,98,0.0,2.0,67,0.00,,,0.00,0.0,meteohub,2013-03-02 12:27:00,
2013-03-02 05:32:00,37.8,27.9,30.30,East,98,0.0,2.0,67,0.00,,,0.00,0.0,meteohub,2013-03-02 12:32:00,
2013-03-02 05:37:00,37.6,27.7,30.30,East,98,1.0,2.0,67,0.00,,,0.00,0.0,meteohub,2013-03-02 12:37:00,
2013-03-02 05:42:00,37.4,28.2,30.30,East,98,0.0,2.0,69,0.00,,,0.00,0.0,meteohub,2013-03-02 12:42:00,
2013-03-02 05:47:00,37.6,28.0,30.30,NNE,24,2.0,2.0,68,0.00,,,0.00,0.0,meteohub,2013-03-02 12:47:00,
2013-03-02 05:52:00,37.9,28.0,30.31,NNW,346,2.0,3.0,67,0.00,,,0.00,0.0,meteohub,2013-03-02 12:52:00,
2013-03-02 05:57:00,38.5,28.0,30.31,NNW,336,1.0,3.0,66,0.00,,,0.00,0.0,meteohub,2013-03-02 12:57:00,
2013-03-02 06:02:00,39.9,28.0,30.31,NNW,331,2.0,3.0,62,0.00,,,0.00,0.0,meteohub,2013-03-02 13:02:00,
2013-03-02 06:08:00,40.8,27.7,30.31,NNW,331,2.0,3.0,59,0.00,,,0.00,0.0,meteohub,2013-03-02 13:08:00,
2013-03-02 06:13:00,41.5,27.5,30.31,NNW,331,0.0,3.0,57,0.00,,,0.00,0.0,meteohub,2013-03-02 13:13:00,
2013-03-02 06:18:00,42.1,27.5,30.31,NNW,331,2.0,3.0,56,0.00,,,0.00,0.0,meteohub,2013-03-02 13:18:00,
2013-03-02 06:23:00,42.3,27.3,30.31,NNW,331,0.0,2.0,55,0.00,,,0.00,0.0,meteohub,2013-03-02 13:23:00,
2013-03-02 06:28:00,42.1,27.9,30.31,NNW,331,0.0,2.0,57,0.00,,,0.00,0.0,meteohub,2013-03-02 13:28:00,
2013-03-02 06:33:00,42.1,26.2,30.31,NNW,331,1.0,2.0,53,0.00,,,0.00,0.0,meteohub,2013-03-02 13:33:00,
2013-03-02 06:38:00,42.4,27.9,30.31,NNW,333,1.0,2.0,56,0.00,,,0.00,0.0,meteohub,2013-03-02 13:38:00,
2013-03-02 06:43:00,41.5,27.0,30.31,NNW,333,1.0,2.0,56,0.00,,,0.00,0.0,meteohub,2013-03-02 13:43:00,
2013-03-02 06:48:00,40.6,27.9,30.32,NNW,333,1.0,2.0,60,0.00,,,0.00,5.0,meteohub,2013-03-02 13:48:00,
2013-03-02 06:53:00,39.9,27.1,30.32,NNW,333,0.0,2.0,60,0.00,,,0.00,9.0,meteohub,2013-03-02 13:53:00,
2013-03-02 06:58:00,39.7,27.3,30.32,NNW,333,1.0,2.0,61,0.00,,,0.00,12.0,meteohub,2013-03-02 13:58:00,
2013-03-02 07:03:00,39.7,27.9,30.32,NNW,333,0.0,2.0,62,0.00,,,0.00,14.0,meteohub,2013-03-02 14:03:00,
2013-03-02 07:08:00,39.4,27.5,30.32,NNW,335,0.0,2.0,62,0.00,,,0.00,16.0,meteohub,2013-03-02 14:08:00,
2013-03-02 07:13:00,39.0,27.9,30.32,NNW,335,0.0,3.0,64,0.00,,,0.00,23.0,meteohub,2013-03-02 14:13:00,
2013-03-02 07:18:00,38.8,28.0,30.33,NNW,335,0.0,3.0,65,0.00,,,0.00,39.0,meteohub,2013-03-02 14:18:00,
2013-03-02 07:23:00,39.2,28.8,30.33,NNW,335,0.0,2.0,66,0.00,,,0.00,49.0,meteohub,2013-03-02 14:23:00,
2013-03-02 07:28:00,40.1,29.7,30.33,NNW,335,1.0,1.0,66,0.00,,,0.00,70.0,meteohub,2013-03-02 14:28:00,
2013-03-02 07:33:00,41.2,29.5,30.34,NNW,335,0.0,1.0,63,0.00,,,0.00,90.0,meteohub,2013-03-02 14:33:00,
2013-03-02 07:38:00,42.4,30.0,30.34,NNW,335,0.0,1.0,61,0.00,,,0.00,111.0,meteohub,2013-03-02 14:38:00,
2013-03-02 07:43:00,44.4,28.4,30.34,NNW,335,0.0,1.0,53,0.00,,,0.00,135.0,meteohub,2013-03-02 14:43:00,
2013-03-02 07:48:00,46.0,29.5,30.34,NNW,335,0.0,2.0,52,0.00,,,0.00,155.0,meteohub,2013-03-02 14:48:00,
2013-03-02 07:53:00,47.5,29.3,30.34,NNW,338,1.0,2.0,49,0.00,,,0.00,179.0,meteohub,2013-03-02 14:53:00,
2013-03-02 07:58:00,48.6,29.8,30.34,North,0,2.0,2.0,48,0.00,,,0.00,204.0,meteohub,2013-03-02 14:58:00,
2013-03-02 08:03:00,49.5,28.9,30.34,North,0,1.0,2.0,45,0.00,,,0.00,227.0,meteohub,2013-03-02 15:03:00,
2013-03-02 08:08:00,50.5,29.5,30.34,North,0,1.0,2.0,44,0.00,,,0.00,246.0,meteohub,2013-03-02 15:08:00,
2013-03-02 08:13:00,51.4,29.1,30.34,North,0,1.0,2.0,42,0.00,,,0.00,265.0,meteohub,2013-03-02 15:13:00,
2013-03-02 08:18:00,52.2,29.1,30.33,NE,48,1.0,2.0,41,0.00,,,0.00,285.0,meteohub,2013-03-02 15:18:00,
2013-03-02 08:23:00,53.1,28.8,30.33,ENE,72,2.0,3.0,39,0.00,,,0.00,306.0,meteohub,2013-03-02 15:23:00,
2013-03-02 08:28:00,54.0,28.2,30.32,ENE,72,1.0,3.0,37,0.00,,,0.00,322.0,meteohub,2013-03-02 15:28:00,
2013-03-02 08:33:00,55.2,28.0,30.32,ENE,72,0.0,3.0,35,0.00,,,0.00,339.0,meteohub,2013-03-02 15:33:00,
2013-03-02 08:38:00,56.5,28.4,30.32,ENE,72,0.0,2.0,34,0.00,,,0.00,360.0,meteohub,2013-03-02 15:38:00,
2013-03-02 08:43:00,57.4,27.7,30.32,ENE,72,1.0,2.0,32,0.00,,,0.00,373.0,meteohub,2013-03-02 15:43:00,
2013-03-02 08:48:00,57.6,27.1,30.32,ENE,72,2.0,2.0,31,0.00,,,0.00,399.0,meteohub,2013-03-02 15:48:00,
2013-03-02 08:53:00,58.1,28.4,30.32,West,268,1.0,3.0,32,0.00,,,0.00,417.0,meteohub,2013-03-02 15:53:00,
2013-03-02 08:58:00,58.6,28.0,30.32,SSW,213,1.0,3.0,31,0.00,,,0.00,436.0,meteohub,2013-03-02 15:58:00,
2013-03-02 09:03:00,59.0,29.1,30.32,SW,236,1.0,3.0,32,0.00,,,0.00,452.0,meteohub,2013-03-02 16:03:00,
2013-03-02 09:08:00,59.4,28.8,30.32,South,191,2.0,4.0,31,0.00,,,0.00,469.0,meteohub,2013-03-02 16:08:00,
2013-03-02 09:13:00,59.5,28.0,30.32,SW,221,3.0,4.0,30,0.00,,,0.00,485.0,meteohub,2013-03-02 16:13:00,
2013-03-02 09:18:00,59.7,28.2,30.32,South,184,1.0,4.0,30,0.00,,,0.00,504.0,meteohub,2013-03-02 16:18:00,
2013-03-02 09:23:00,60.3,28.8,30.32,WSW,251,2.0,4.0,30,0.00,,,0.00,520.0,meteohub,2013-03-02 16:23:00,
2013-03-02 09:28:00,60.6,27.3,30.32,SSW,207,2.0,4.0,28,0.00,,,0.00,536.0,meteohub,2013-03-02 16:28:00,
2013-03-02 09:33:00,61.3,27.9,30.32,SSW,204,2.0,4.0,28,0.00,,,0.00,554.0,meteohub,2013-03-02 16:33:00,
2013-03-02 09:38:00,61.9,26.6,30.31,SW,230,3.0,4.0,26,0.00,,,0.00,570.0,meteohub,2013-03-02 16:38:00,
2013-03-02 09:43:00,62.1,27.7,30.31,West,269,1.0,4.0,27,0.00,,,0.00,584.0,meteohub,2013-03-02 16:43:00,
2013-03-02 09:48:00,62.8,28.2,30.31,West,261,1.0,4.0,27,0.00,,,0.00,599.0,meteohub,2013-03-02 16:48:00,
2013-03-02 09:53:00,63.1,28.6,30.31,WSW,251,1.0,4.0,27,0.00,,,0.00,613.0,meteohub,2013-03-02 16:53:00,
2013-03-02 09:58:00,64.0,27.5,30.31,SW,230,2.0,3.0,25,0.00,,,0.00,631.0,meteohub,2013-03-02 16:58:00,
2013-03-02 10:03:00,64.6,28.9,30.31,WSW,254,2.0,4.0,26,0.00,,,0.00,643.0,meteohub,2013-03-02 17:03:00,
2013-03-02 10:08:00,65.1,29.3,30.31,WSW,237,4.0,5.0,26,0.00,,,0.00,657.0,meteohub,2013-03-02 17:08:00,
2013-03-02 10:13:00,65.5,27.7,30.31,West,261,3.0,5.0,24,0.00,,,0.00,671.0,meteohub,2013-03-02 17:13:00,
2013-03-02 10:18:00,65.8,27.0,30.31,NW,323,4.0,5.0,23,0.00,,,0.00,682.0,meteohub,2013-03-02 17:18:00,
2013-03-02 10:23:00,66.4,29.5,30.31,NW,304,2.0,5.0,25,0.00,,,0.00,696.0,meteohub,2013-03-02 17:23:00,
2013-03-02 10:28:00,66.7,27.7,30.31,WSW,252,2.0,5.0,23,0.00,,,0.00,708.0,meteohub,2013-03-02 17:28:00,
2013-03-02 10:33:00,67.3,28.2,30.31,WNW,298,4.0,5.0,23,0.00,,,0.00,721.0,meteohub,2013-03-02 17:33:00,
2013-03-02 10:38:00,67.6,28.6,30.30,WSW,250,1.0,5.0,23,0.00,,,0.00,731.0,meteohub,2013-03-02 17:38:00,
2013-03-02 10:43:00,68.2,27.9,30.30,West,263,2.0,4.0,22,0.00,,,0.00,745.0,meteohub,2013-03-02 17:43:00,
2013-03-02 10:48:00,68.5,27.1,30.30,WNW,290,1.0,4.0,21,0.00,,,0.00,752.0,meteohub,2013-03-02 17:48:00,
2013-03-02 10:53:00,68.7,26.1,30.30,NW,315,2.0,4.0,20,0.00,,,0.00,763.0,meteohub,2013-03-02 17:53:00,
2013-03-02 10:59:00,69.6,26.8,30.29,NNW,329,3.0,4.0,20,0.00,,,0.00,773.0,meteohub,2013-03-02 17:59:00,
2013-03-02 11:04:00,70.2,26.1,30.29,WSW,252,3.0,4.0,19,0.00,,,0.00,784.0,meteohub,2013-03-02 18:04:00,
2013-03-02 11:09:00,70.7,27.7,30.29,SW,224,3.0,4.0,20,0.00,,,0.00,793.0,meteohub,2013-03-02 18:09:00,
2013-03-02 11:14:00,71.6,25.9,30.29,West,259,1.0,4.0,18,0.00,,,0.00,802.0,meteohub,2013-03-02 18:14:00,
2013-03-02 11:19:00,72.5,26.6,30.29,SSE,155,1.0,4.0,18,0.00,,,0.00,812.0,meteohub,2013-03-02 18:19:00,
2013-03-02 11:24:00,73.0,25.7,30.28,NW,310,0.0,5.0,17,0.00,,,0.00,819.0,meteohub,2013-03-02 18:24:00,
2013-03-02 11:29:00,73.6,27.5,30.28,WSW,241,7.0,7.0,18,0.00,,,0.00,826.0,meteohub,2013-03-02 18:29:00,
2013-03-02 11:34:00,74.1,26.6,30.28,ESE,117,4.0,7.0,17,0.00,,,0.00,833.0,meteohub,2013-03-02 18:34:00,
2013-03-02 11:39:00,75.2,25.9,30.28,SSE,153,4.0,7.0,16,0.00,,,0.00,838.0,meteohub,2013-03-02 18:39:00,
2013-03-02 11:44:00,75.7,29.3,30.28,SSW,201,4.0,7.0,18,0.00,,,0.00,844.0,meteohub,2013-03-02 18:44:00,
2013-03-02 11:49:00,76.5,27.0,30.27,South,189,1.0,10.0,16,0.00,,,0.00,849.0,meteohub,2013-03-02 18:49:00,
2013-03-02 11:54:00,76.8,25.7,30.27,South,175,3.0,10.0,15,0.00,,,0.00,854.0,meteohub,2013-03-02 18:54:00,
2013-03-02 11:59:00,77.2,25.9,30.27,SSE,151,1.0,6.0,15,0.00,,,0.00,858.0,meteohub,2013-03-02 18:59:00,
2013-03-02 12:04:00,77.7,24.8,30.27,SW,224,2.0,6.0,14,0.00,,,0.00,863.0,meteohub,2013-03-02 19:04:00,
2013-03-02 12:09:00,77.7,19.0,30.27,SSW,208,1.0,6.0,11,0.00,,,0.00,865.0,meteohub,2013-03-02 19:09:00,
2013-03-02 12:14:00,77.7,21.0,30.27,South,180,2.0,6.0,12,0.00,,,0.00,868.0,meteohub,2013-03-02 19:14:00,
2013-03-02 12:19:00,78.1,21.4,30.27,South,181,1.0,6.0,12,0.00,,,0.00,874.0,meteohub,2013-03-02 19:19:00,
2013-03-02 12:24:00,78.4,21.6,30.26,SSE,153,2.0,7.0,12,0.00,,,0.00,872.0,meteohub,2013-03-02 19:24:00,
2013-03-02 12:29:00,79.0,22.1,30.26,South,171,1.0,7.0,12,0.00,,,0.00,874.0,meteohub,2013-03-02 19:29:00,
2013-03-02 12:34:00,79.3,26.1,30.25,SW,219,0.0,6.0,14,0.00,,,0.00,877.0,meteohub,2013-03-02 19:34:00,
2013-03-02 12:39:00,79.5,22.5,30.25,SE,125,3.0,6.0,12,0.00,,,0.00,875.0,meteohub,2013-03-02 19:39:00,
2013-03-02 12:44:00,79.3,20.3,30.25,SE,131,3.0,5.0,11,0.00,,,0.00,877.0,meteohub,2013-03-02 19:44:00,
2013-03-02 12:49:00,79.3,22.3,30.24,East,88,1.0,6.0,12,0.00,,,0.00,877.0,meteohub,2013-03-02 19:49:00,
2013-03-02 12:54:00,79.0,22.1,30.23,North,355,2.0,6.0,12,0.00,,,0.00,875.0,meteohub,2013-03-02 19:54:00,
2013-03-02 12:59:00,79.3,20.3,30.23,East,94,2.0,7.0,11,0.00,,,0.00,874.0,meteohub,2013-03-02 19:59:00,
2013-03-02 13:04:00,79.9,20.7,30.23,SW,233,4.0,7.0,11,0.00,,,0.00,872.0,meteohub,2013-03-02 20:04:00,
2013-03-02 13:09:00,79.9,20.7,30.22,WSW,238,1.0,7.0,11,0.00,,,0.00,867.0,meteohub,2013-03-02 20:09:00,
2013-03-02 13:14:00,79.9,20.7,30.22,ENE,71,1.0,7.0,11,0.00,,,0.00,863.0,meteohub,2013-03-02 20:14:00,
2013-03-02 13:19:00,80.2,21.0,30.22,SE,144,1.0,6.0,11,0.00,,,0.00,860.0,meteohub,2013-03-02 20:19:00,
2013-03-02 13:24:00,81.0,21.6,30.22,SSE,152,2.0,6.0,11,0.00,,,0.00,856.0,meteohub,2013-03-02 20:24:00,
2013-03-02 13:29:00,81.0,23.5,30.21,West,266,3.0,6.0,12,0.00,,,0.00,849.0,meteohub,2013-03-02 20:29:00,
2013-03-02 13:34:00,81.1,23.7,30.21,SW,218,5.0,6.0,12,0.00,,,0.00,846.0,meteohub,2013-03-02 20:34:00,
2013-03-02 13:39:00,81.7,19.8,30.21,SSE,155,2.0,6.0,10,0.00,,,0.00,838.0,meteohub,2013-03-02 20:39:00,
2013-03-02 13:45:00,82.0,22.3,30.21,SSW,199,6.0,6.0,11,0.00,,,0.00,833.0,meteohub,2013-03-02 20:45:00,
2013-03-02 13:50:00,82.0,24.4,30.20,SW,225,5.0,6.0,12,0.00,,,0.00,830.0,meteohub,2013-03-02 20:50:00,
2013-03-02 13:55:00,82.0,22.3,30.20,SW,228,4.0,8.0,11,0.00,,,0.00,821.0,meteohub,2013-03-02 20:55:00,
2013-03-02 14:00:00,82.0,20.1,30.20,SSW,202,2.0,8.0,10,0.00,,,0.00,816.0,meteohub,2013-03-02 21:00:00,
2013-03-02 14:05:00,82.2,20.3,30.19,SSW,196,3.0,7.0,10,0.00,,,0.00,807.0,meteohub,2013-03-02 21:05:00,
2013-03-02 14:10:00,82.4,20.3,30.19,South,181,1.0,6.0,10,0.00,,,0.00,798.0,meteohub,2013-03-02 21:10:00,
2013-03-02 14:15:00,82.4,20.3,30.19,West,273,3.0,6.0,10,0.00,,,0.00,789.0,meteohub,2013-03-02 21:15:00,
2013-03-02 14:20:00,82.4,20.3,30.19,WSW,250,5.0,7.0,10,0.00,,,0.00,782.0,meteohub,2013-03-02 21:20:00,
2013-03-02 14:25:00,82.4,18.0,30.19,SSW,208,4.0,7.0,9,0.00,,,0.00,772.0,meteohub,2013-03-02 21:25:00,
2013-03-02 14:30:00,82.2,17.8,30.19,SW,224,2.0,8.0,9,0.00,,,0.00,761.0,meteohub,2013-03-02 21:30:00,
2013-03-02 14:35:00,82.6,20.5,30.19,West,275,1.0,8.0,10,0.00,,,0.00,749.0,meteohub,2013-03-02 21:35:00,
2013-03-02 14:40:00,82.9,15.6,30.19,NW,312,2.0,6.0,8,0.00,,,0.00,740.0,meteohub,2013-03-02 21:40:00,
2013-03-02 14:45:00,82.9,15.6,30.19,SSW,195,2.0,7.0,8,0.00,,,0.00,728.0,meteohub,2013-03-02 21:45:00,
2013-03-02 14:50:00,82.9,15.6,30.18,SSE,166,3.0,7.0,8,0.00,,,0.00,707.0,meteohub,2013-03-02 21:50:00,
2013-03-02 14:55:00,82.8,15.4,30.18,WNW,288,4.0,7.0,8,0.00,,,0.00,705.0,meteohub,2013-03-02 21:55:00,
2013-03-02 15:00:00,83.1,15.8,30.18,West,261,3.0,7.0,8,0.00,,,0.00,705.0,meteohub,2013-03-02 22:00:00,
2013-03-02 15:05:00,82.9,15.6,30.18,WSW,249,5.0,7.0,8,0.00,,,0.00,693.0,meteohub,2013-03-02 22:05:00,
2013-03-02 15:10:00,82.9,15.6,30.18,West,259,3.0,8.0,8,0.00,,,0.00,677.0,meteohub,2013-03-02 22:10:00,
2013-03-02 15:15:00,82.9,15.6,30.17,SSW,203,2.0,8.0,8,0.00,,,0.00,642.0,meteohub,2013-03-02 22:15:00,
2013-03-02 15:20:00,82.9,12.6,30.17,West,279,1.0,8.0,7,0.00,,,0.00,577.0,meteohub,2013-03-02 22:20:00,
2013-03-02 15:25:00,82.9,12.6,30.17,West,267,5.0,6.0,7,0.00,,,0.00,629.0,meteohub,2013-03-02 22:25:00,
2013-03-02 15:30:00,82.9,12.6,30.17,SW,224,2.0,6.0,7,0.00,,,0.00,613.0,meteohub,2013-03-02 22:30:00,
2013-03-02 15:35:00,83.1,12.7,30.17,NW,322,2.0,6.0,7,0.00,,,0.00,596.0,meteohub,2013-03-02 22:35:00,
2013-03-02 15:40:00,83.5,9.5,30.17,SW,218,1.0,6.0,6,0.00,,,0.00,582.0,meteohub,2013-03-02 22:40:00,
2013-03-02 15:45:00,83.8,9.7,30.17,SW,218,1.0,4.0,6,0.00,,,0.00,568.0,meteohub,2013-03-02 22:45:00,
2013-03-02 15:50:00,84.4,6.1,30.17,SW,215,1.0,4.0,5,0.00,,,0.00,548.0,meteohub,2013-03-02 22:50:00,
2013-03-02 15:55:00,84.4,6.1,30.17,SSW,196,2.0,5.0,5,0.00,,,0.00,531.0,meteohub,2013-03-02 22:55:00,
2013-03-02 16:00:00,84.4,10.0,30.16,South,175,1.0,6.0,6,0.00,,,0.00,515.0,meteohub,2013-03-02 23:00:00,
2013-03-02 16:05:00,84.6,10.2,30.16,SSW,207,3.0,6.0,6,0.00,,,0.00,503.0,meteohub,2013-03-02 23:05:00,
2013-03-02 16:10:00,84.6,6.3,30.16,West,267,3.0,6.0,5,0.00,,,0.00,483.0,meteohub,2013-03-02 23:10:00,
2013-03-02 16:15:00,84.4,1.2,30.16,West,267,1.0,6.0,4,0.00,,,0.00,464.0,meteohub,2013-03-02 23:15:00,
2013-03-02 16:20:00,84.4,10.0,30.16,SSE,155,3.0,6.0,6,0.00,,,0.00,445.0,meteohub,2013-03-02 23:20:00,
2013-03-02 16:25:00,84.0,5.9,30.16,SSW,211,1.0,5.0,5,0.00,,,0.00,427.0,meteohub,2013-03-02 23:25:00,
2013-03-02 16:30:00,83.8,9.7,30.16,West,270,2.0,7.0,6,0.00,,,0.00,408.0,meteohub,2013-03-02 23:30:00,
2013-03-02 16:35:00,83.7,9.7,30.16,WNW,292,2.0,7.0,6,0.00,,,0.00,388.0,meteohub,2013-03-02 23:35:00,
2013-03-02 16:40:00,83.5,5.4,30.15,WSW,257,1.0,7.0,5,0.00,,,0.00,373.0,meteohub,2013-03-02 23:40:00,
2013-03-02 16:45:00,83.5,5.4,30.15,West,261,2.0,6.0,5,0.00,,,0.00,353.0,meteohub,2013-03-02 23:45:00,
2013-03-02 16:50:00,83.5,5.4,30.15,WSW,256,3.0,5.0,5,0.00,,,0.00,334.0,meteohub,2013-03-02 23:50:00,
2013-03-02 16:55:00,83.3,9.3,30.15,WSW,245,3.0,5.0,6,0.00,,,0.00,313.0,meteohub,2013-03-02 23:55:00,
2013-03-02 17:00:00,83.5,9.5,30.15,SW,236,2.0,5.0,6,0.00,,,0.00,288.0,meteohub,2013-03-03 00:00:00,
2013-03-02 17:06:00,83.7,9.7,30.15,WSW,252,2.0,5.0,6,0.00,,,0.00,265.0,meteohub,2013-03-03 00:06:00,
2013-03-02 17:11:00,83.1,9.1,30.15,West,267,5.0,5.0,6,0.00,,,0.00,241.0,meteohub,2013-03-03 00:11:00,
2013-03-02 17:16:00,82.8,12.4,30.14,SW,214,3.0,5.0,7,0.00,,,0.00,211.0,meteohub,2013-03-03 00:16:00,
2013-03-02 17:21:00,82.2,12.0,30.14,SW,219,2.0,6.0,7,0.00,,,0.00,188.0,meteohub,2013-03-03 00:21:00,
2013-03-02 17:26:00,81.7,11.7,30.14,WSW,248,2.0,6.0,7,0.00,,,0.00,105.0,meteohub,2013-03-03 00:26:00,
2013-03-02 17:31:00,81.1,11.3,30.14,WSW,255,2.0,6.0,7,0.00,,,0.00,118.0,meteohub,2013-03-03 00:31:00,
2013-03-02 17:36:00,80.6,13.8,30.14,WSW,241,2.0,6.0,8,0.00,,,0.00,104.0,meteohub,2013-03-03 00:36:00,
2013-03-02 17:41:00,80.4,13.6,30.14,West,266,1.0,6.0,8,0.00,,,0.00,109.0,meteohub,2013-03-03 00:41:00,
2013-03-02 17:46:00,80.2,13.6,30.14,SW,234,2.0,6.0,8,0.00,,,0.00,88.0,meteohub,2013-03-03 00:46:00,
2013-03-02 17:51:00,80.1,13.5,30.14,SW,223,1.0,5.0,8,0.00,,,0.00,72.0,meteohub,2013-03-03 00:51:00,
2013-03-02 17:56:00,79.7,15.8,30.14,WSW,240,1.0,5.0,9,0.00,,,0.00,51.0,meteohub,2013-03-03 00:56:00,
2013-03-02 18:01:00,79.2,15.4,30.14,SW,236,1.0,4.0,9,0.00,,,0.00,30.0,meteohub,2013-03-03 01:01:00,
2013-03-02 18:06:00,78.4,17.4,30.14,WSW,241,1.0,4.0,10,0.00,,,0.00,21.0,meteohub,2013-03-03 01:06:00,
2013-03-02 18:11:00,77.7,19.0,30.14,WSW,242,1.0,3.0,11,0.00,,,0.00,12.0,meteohub,2013-03-03 01:11:00,
2013-03-02 18:16:00,76.8,20.3,30.15,WSW,248,2.0,3.0,12,0.00,,,0.00,11.0,meteohub,2013-03-03 01:16:00,
2013-03-02 18:21:00,75.9,19.6,30.15,WSW,248,0.0,3.0,12,0.00,,,0.00,7.0,meteohub,2013-03-03 01:21:00,
2013-03-02 18:26:00,75.0,20.8,30.14,WSW,248,1.0,3.0,13,0.00,,,0.00,0.0,meteohub,2013-03-03 01:26:00,
2013-03-02 18:31:00,74.1,21.9,30.15,WSW,248,1.0,2.0,14,0.00,,,0.00,0.0,meteohub,2013-03-03 01:31:00,
2013-03-02 18:36:00,73.2,22.8,30.15,WSW,248,1.0,2.0,15,0.00,,,0.00,0.0,meteohub,2013-03-03 01:36:00,
2013-03-02 18:41:00,72.5,25.2,30.15,WSW,251,1.0,3.0,17,0.00,,,0.00,0.0,meteohub,2013-03-03 01:41:00,
2013-03-02 18:46:00,71.8,26.1,30.14,WSW,251,1.0,3.0,18,0.00,,,0.00,0.0,meteohub,2013-03-03 01:46:00,
2013-03-02 18:51:00,71.1,28.0,30.14,WSW,251,1.0,3.0,20,0.00,,,0.00,0.0,meteohub,2013-03-03 01:51:00,
2013-03-02 18:56:00,70.2,28.4,30.15,WSW,251,0.0,2.0,21,0.00,,,0.00,0.0,meteohub,2013-03-03 01:56:00,
2013-03-02 19:01:00,69.4,30.0,30.15,WSW,251,0.0,1.0,23,0.00,,,0.00,0.0,meteohub,2013-03-03 02:01:00,
2013-03-02 19:06:00,68.5,28.2,30.15,WSW,251,0.0,1.0,22,0.00,,,0.00,0.0,meteohub,2013-03-03 02:06:00,
2013-03-02 19:11:00,67.6,29.5,30.15,WSW,251,0.0,1.0,24,0.00,,,0.00,0.0,meteohub,2013-03-03 02:11:00,
2013-03-02 19:16:00,66.7,29.8,30.15,WSW,251,1.0,2.0,25,0.00,,,0.00,0.0,meteohub,2013-03-03 02:16:00,
2013-03-02 19:21:00,65.7,27.9,30.15,WSW,251,0.0,2.0,24,0.00,,,0.00,0.0,meteohub,2013-03-03 02:21:00,
2013-03-02 19:26:00,64.8,29.1,30.15,WSW,251,1.0,2.0,26,0.00,,,0.00,0.0,meteohub,2013-03-03 02:26:00,
2013-03-02 19:31:00,64.0,29.3,30.15,WSW,251,0.0,2.0,27,0.00,,,0.00,0.0,meteohub,2013-03-03 02:31:00,
2013-03-02 19:36:00,63.3,27.9,30.16,WSW,251,0.0,2.0,26,0.00,,,0.00,0.0,meteohub,2013-03-03 02:36:00,
2013-03-02 19:41:00,62.8,29.1,30.15,WSW,251,0.0,2.0,28,0.00,,,0.00,0.0,meteohub,2013-03-03 02:41:00,
2013-03-02 19:46:00,62.1,28.6,30.16,WSW,251,1.0,1.0,28,0.00,,,0.00,0.0,meteohub,2013-03-03 02:46:00,
2013-03-02 19:51:00,61.5,27.1,30.16,WSW,251,1.0,1.0,27,0.00,,,0.00,0.0,meteohub,2013-03-03 02:51:00,
2013-03-02 19:56:00,61.3,27.1,30.16,WSW,251,1.0,2.0,27,0.00,,,0.00,0.0,meteohub,2013-03-03 02:56:00,
2013-03-02 20:01:00,61.5,27.1,30.16,WSW,251,0.0,2.0,27,0.00,,,0.00,0.0,meteohub,2013-03-03 03:01:00,
2013-03-02 20:06:00,61.3,29.7,30.16,WSW,251,1.0,1.0,30,0.00,,,0.00,0.0,meteohub,2013-03-03 03:06:00,
2013-03-02 20:11:00,61.0,27.7,30.16,WSW,251,0.0,1.0,28,0.00,,,0.00,0.0,meteohub,2013-03-03 03:11:00,
2013-03-02 20:16:00,60.6,28.9,30.16,WSW,251,1.0,1.0,30,0.00,,,0.00,0.0,meteohub,2013-03-03 03:16:00,
2013-03-02 20:21:00,60.3,29.5,30.16,WSW,251,0.0,1.0,31,0.00,,,0.00,0.0,meteohub,2013-03-03 03:21:00,
2013-03-02 20:26:00,60.1,29.3,30.16,WSW,251,0.0,2.0,31,0.00,,,0.00,0.0,meteohub,2013-03-03 03:26:00,
2013-03-02 20:31:00,59.7,29.8,30.16,WSW,251,0.0,2.0,32,0.00,,,0.00,0.0,meteohub,2013-03-03 03:31:00,
2013-03-02 20:36:00,59.4,29.5,30.16,WSW,251,0.0,2.0,32,0.00,,,0.00,0.0,meteohub,2013-03-03 03:36:00,
2013-03-02 20:41:00,59.4,29.5,30.16,WSW,251,1.0,2.0,32,0.00,,,0.00,0.0,meteohub,2013-03-03 03:41:00,
2013-03-02 20:46:00,59.4,27.1,30.16,WSW,251,1.0,2.0,29,0.00,,,0.00,0.0,meteohub,2013-03-03 03:46:00,
2013-03-02 20:51:00,59.2,28.6,30.17,WSW,251,0.0,2.0,31,0.00,,,0.00,0.0,meteohub,2013-03-03 03:51:00,
2013-03-02 20:56:00,58.8,28.2,30.17,WSW,251,1.0,2.0,31,0.00,,,0.00,0.0,meteohub,2013-03-03 03:56:00,
2013-03-02 21:01:00,58.6,28.0,30.17,WSW,251,0.0,2.0,31,0.00,,,0.00,0.0,meteohub,2013-03-03 04:01:00,
2013-03-02 21:06:00,58.5,28.8,30.17,WSW,251,1.0,2.0,32,0.00,,,0.00,0.0,meteohub,2013-03-03 04:06:00,
2013-03-02 21:11:00,57.9,27.5,30.17,WSW,251,1.0,1.0,31,0.00,,,0.00,0.0,meteohub,2013-03-03 04:11:00,
2013-03-02 21:16:00,57.6,30.7,30.17,WSW,251,0.0,1.0,36,0.00,,,0.00,0.0,meteohub,2013-03-03 04:16:00,
2013-03-02 21:21:00,56.8,28.0,30.17,WSW,251,0.0,1.0,33,0.00,,,0.00,0.0,meteohub,2013-03-03 04:21:00,
2013-03-02 21:26:00,56.7,29.3,30.17,WSW,251,1.0,2.0,35,0.00,,,0.00,0.0,meteohub,2013-03-03 04:26:00,
2013-03-02 21:31:00,56.1,28.8,30.17,WSW,251,0.0,2.0,35,0.00,,,0.00,0.0,meteohub,2013-03-03 04:31:00,
2013-03-02 21:36:00,56.1,28.0,30.17,WSW,251,0.0,2.0,34,0.00,,,0.00,0.0,meteohub,2013-03-03 04:36:00,
2013-03-02 21:42:00,56.3,28.2,30.17,WSW,251,1.0,2.0,34,0.00,,,0.00,0.0,meteohub,2013-03-03 04:42:00,
2013-03-02 21:46:00,56.3,27.5,30.17,WSW,251,1.0,2.0,33,0.00,,,0.00,0.0,meteohub,2013-03-03 04:46:00,
2013-03-02 21:51:00,56.1,28.0,30.17,WSW,251,0.0,2.0,34,0.00,,,0.00,0.0,meteohub,2013-03-03 04:51:00,
2013-03-02 21:56:00,55.9,28.8,30.18,WSW,251,0.0,2.0,35,0.00,,,0.00,0.0,meteohub,2013-03-03 04:56:00,
2013-03-02 22:00:00,55.8,29.8,30.18,WSW,251,0.0,2.0,37,0.00,,,0.00,0.0,meteohub,2013-03-03 05:00:00,
2013-03-02 22:01:00,55.6,29.7,30.18,WSW,251,0.0,2.0,37,0.00,,,0.00,0.0,meteohub,2013-03-03 05:01:00,
2013-03-02 22:06:00,55.0,29.8,30.18,WSW,251,0.0,1.0,38,0.00,,,0.00,0.0,meteohub,2013-03-03 05:06:00,
2013-03-02 22:11:00,54.5,30.7,30.18,WSW,251,1.0,2.0,40,0.00,,,0.00,0.0,meteohub,2013-03-03 05:11:00,
2013-03-02 22:16:00,53.8,30.0,30.18,WSW,251,0.0,2.0,40,0.00,,,0.00,0.0,meteohub,2013-03-03 05:16:00,
2013-03-02 22:21:00,53.1,30.6,30.18,WSW,251,0.0,2.0,42,0.00,,,0.00,0.0,meteohub,2013-03-03 05:21:00,
2013-03-02 22:26:00,52.5,28.9,30.18,WSW,251,1.0,2.0,40,0.00,,,0.00,0.0,meteohub,2013-03-03 05:26:00,
2013-03-02 22:31:00,52.3,28.0,30.18,WSW,251,1.0,2.0,39,0.00,,,0.00,0.0,meteohub,2013-03-03 05:31:00,
2013-03-02 22:36:00,52.7,27.1,30.18,WSW,251,2.0,2.0,37,0.00,,,0.00,0.0,meteohub,2013-03-03 05:36:00,
2013-03-02 22:41:00,53.2,28.2,30.18,WSW,251,0.0,3.0,38,0.00,,,0.00,0.0,meteohub,2013-03-03 05:41:00,
2013-03-02 22:46:00,53.4,27.9,30.18,WSW,251,1.0,3.0,37,0.00,,,0.00,0.0,meteohub,2013-03-03 05:46:00,
2013-03-02 22:51:00,54.0,28.2,30.18,WSW,251,1.0,3.0,37,0.00,,,0.00,0.0,meteohub,2013-03-03 05:51:00,
2013-03-02 22:56:00,54.1,29.1,30.18,WSW,251,0.0,2.0,38,0.00,,,0.00,0.0,meteohub,2013-03-03 05:56:00,
2013-03-02 23:01:00,54.0,30.2,30.18,WSW,251,0.0,2.0,40,0.00,,,0.00,0.0,meteohub,2013-03-03 06:01:00,
2013-03-02 23:06:00,53.2,30.7,30.17,WSW,251,1.0,2.0,42,0.00,,,0.00,0.0,meteohub,2013-03-03 06:06:00,
2013-03-02 23:11:00,52.7,30.7,30.18,WSW,251,1.0,2.0,43,0.00,,,0.00,0.0,meteohub,2013-03-03 06:11:00,
2013-03-02 23:16:00,52.2,30.9,30.17,WSW,251,0.0,2.0,44,0.00,,,0.00,0.0,meteohub,2013-03-03 06:16:00,
2013-03-02 23:21:00,51.4,30.7,30.17,WSW,251,0.0,2.0,45,0.00,,,0.00,0.0,meteohub,2013-03-03 06:21:00,
2013-03-02 23:26:00,51.1,31.1,30.17,WSW,251,0.0,2.0,46,0.00,,,0.00,0.0,meteohub,2013-03-03 06:26:00,
2013-03-02 23:31:00,50.7,31.3,30.17,WSW,251,1.0,1.0,47,0.00,,,0.00,0.0,meteohub,2013-03-03 06:31:00,
2013-03-02 23:36:00,50.7,30.2,30.17,WSW,251,1.0,1.0,45,0.00,,,0.00,0.0,meteohub,2013-03-03 06:36:00,
2013-03-02 23:41:00,51.4,29.7,30.17,WSW,251,1.0,2.0,43,0.00,,,0.00,0.0,meteohub,2013-03-03 06:41:00,
2013-03-02 23:46:00,52.0,29.7,30.17,WSW,251,1.0,2.0,42,0.00,,,0.00,0.0,meteohub,2013-03-03 06:46:00,
2013-03-02 23:51:00,52.3,29.8,30.17,WSW,251,0.0,2.0,42,0.00,,,0.00,0.0,meteohub,2013-03-03 06:51:00,
2013-03-02 23:56:00,52.7,29.7,30.16,WSW,251,1.0,2.0,41,0.00,,,0.00,0.0,meteohub,2013-03-03 06:56:00,